Time;durP1;ratioP1;P1;durP2;ratioP2;P2;SDS_P1;SDS_P2;PMS_P1;PMS_P2;Temp;Humidity;BMP_temperature;BMP_pressure;BME280_temperature;BME280_humidity;BME280_pressure;Samples;Min_cycle;Max_cycle;Signal;HPM_P1;HPM_P2
2022/05/07 00:01:04;;;;;;;3.30;1.93;;;;;;;9.12;82.91;99229.25;5013733;28;20199;-55
2022/05/07 00:03:32;;;;;;;4.93;1.80;;;;;;;9.03;83.31;99237.81;5013863;28;20210;-52
2022/05/07 00:05:59;;;;;;;4.40;2.20;;;;;;;9.01;85.32;99232.75;5013285;28;20236;-52
2022/05/07 00:08:26;;;;;;;4.23;1.80;;;;;;;8.87;84.84;99230.44;5014348;28;20191;-54
2022/05/07 00:10:55;;;;;;;3.13;2.10;;;;;;;8.82;84.53;99232.59;5014037;28;20186;-53
2022/05/07 00:13:22;;;;;;;3.73;2.37;;;;;;;8.69;84.73;99225.78;5013751;28;20186;-53
2022/05/07 00:18:35;;;;;;;3.43;1.90;;;;;;;8.63;83.47;99225.47;5009267;28;20191;-52
2022/05/07 00:21:02;;;;;;;5.50;2.47;;;;;;;8.60;83.24;99229.13;5013635;28;20260;-54
2022/05/07 00:23:30;;;;;;;5.07;3.20;;;;;;;8.60;84.08;99225.72;5013666;28;20191;-55
2022/05/07 00:25:58;;;;;;;5.70;3.90;;;;;;;8.51;83.71;99227.25;5013194;28;20658;-54
2022/05/07 00:28:24;;;;;;;6.90;3.47;;;;;;;8.56;82.38;99227.72;5011885;28;20606;-52
2022/05/07 00:30:52;;;;;;;4.13;2.97;;;;;;;8.61;85.04;99227.38;5006099;28;20209;-55
2022/05/07 00:33:19;;;;;;;4.60;2.80;;;;;;;8.61;84.04;99229.97;4995228;28;20195;-54
2022/05/07 00:35:48;;;;;;;4.10;2.73;;;;;;;8.56;83.44;99227.72;5012710;28;20607;-54
2022/05/07 00:38:15;;;;;;;5.27;2.20;;;;;;;8.52;82.29;99226.31;4995397;28;20195;-55
2022/05/07 00:40:43;;;;;;;4.87;2.30;;;;;;;8.55;83.44;99228.66;4995168;28;20194;-54
2022/05/07 00:43:12;;;;;;;6.10;2.60;;;;;;;8.48;84.29;99224.91;4995239;28;20196;-54
2022/05/07 00:45:40;;;;;;;5.93;2.53;;;;;;;8.42;84.30;99224.44;4994937;28;20264;-55
2022/05/07 00:48:07;;;;;;;6.70;2.03;;;;;;;8.49;84.81;99222.19;4995324;28;20235;-55
2022/05/07 00:53:22;;;;;;;7.17;2.40;;;;;;;8.40;83.04;99221.13;4995070;28;20202;-54
2022/05/07 00:55:50;;;;;;;2.77;2.10;;;;;;;8.50;82.26;99220.41;4994778;28;20278;-53
2022/05/07 00:58:18;;;;;;;2.83;2.20;;;;;;;8.49;83.10;99218.75;4995209;28;20325;-55
2022/05/07 01:00:46;;;;;;;6.80;2.60;;;;;;;8.40;83.42;99220.28;5012700;28;20187;-53
2022/05/07 01:03:14;;;;;;;2.53;1.90;;;;;;;8.35;82.39;99218.06;4994884;28;20262;-55
2022/05/07 01:05:41;;;;;;;2.60;1.67;;;;;;;8.38;83.79;99215.22;4994533;28;20220;-55
2022/05/07 01:08:11;;;;;;;4.23;2.00;;;;;;;8.38;84.52;99223.03;4993564;28;20201;-53
2022/05/07 01:10:43;;;;;;;3.70;1.97;;;;;;;8.27;84.50;99221.25;4995255;28;20251;-54
2022/05/07 01:13:11;;;;;;;2.67;2.10;;;;;;;8.20;84.38;99221.88;4994893;28;20574;-53
2022/05/07 01:15:58;;;;;;;7.97;2.63;;;;;;;8.23;84.94;99216.44;5012904;28;20225;-52
2022/05/07 01:18:30;;;;;;;3.13;2.17;;;;;;;8.20;85.50;99216.69;4994942;28;20702;-55
2022/05/07 01:21:17;;;;;;;5.13;2.37;;;;;;;8.14;85.42;99217.97;5013224;28;20212;-53
2022/05/07 01:23:48;;;;;;;4.83;2.13;;;;;;;8.09;85.48;99212.31;4994975;28;20194;-54
2022/05/07 01:26:20;;;;;;;5.60;2.20;;;;;;;8.06;86.12;99215.13;4993021;28;20222;-55
2022/05/07 01:28:48;;;;;;;4.93;2.30;;;;;;;7.98;86.99;99208.78;4995140;28;20573;-55
2022/05/07 01:31:16;;;;;;;2.87;2.20;;;;;;;8.00;87.17;99218.22;4995028;28;20797;-54
2022/05/07 01:33:44;;;;;;;3.37;2.07;;;;;;;8.04;86.51;99207.47;4994836;28;20561;-54
2022/05/07 01:36:19;;;;;;;6.93;2.53;;;;;;;7.99;87.20;99207.00;4994931;28;20202;-53
2022/05/07 01:38:52;;;;;;;3.33;2.53;;;;;;;8.05;86.67;99214.34;4995084;28;20255;-55
2022/05/07 01:41:38;;;;;;;3.00;1.97;;;;;;;8.00;86.91;99211.25;5012665;28;20242;-53
2022/05/07 01:44:07;;;;;;;3.90;2.53;;;;;;;8.01;85.88;99207.72;4994481;28;20595;-54
2022/05/07 01:49:24;;;;;;;4.17;2.70;;;;;;;8.09;84.80;99213.16;4995001;28;20557;-54
2022/05/07 01:51:54;;;;;;;9.03;2.53;;;;;;;8.15;85.00;99211.00;4995019;28;20198;-56
2022/05/07 01:54:21;;;;;;;7.00;2.27;;;;;;;8.07;84.28;99203.78;4994615;28;20309;-54
2022/05/07 01:56:52;;;;;;;4.07;2.40;;;;;;;8.08;83.56;99206.28;4994988;28;20323;-55
2022/05/07 01:59:19;;;;;;;3.93;2.60;;;;;;;8.08;83.79;99206.28;4994734;28;20545;-55
2022/05/07 02:01:48;;;;;;;3.10;2.13;;;;;;;8.15;84.20;99208.41;4994974;28;20189;-53
2022/05/07 02:04:15;;;;;;;3.90;2.40;;;;;;;8.15;84.44;99216.22;4994355;28;20218;-53
2022/05/07 02:06:42;;;;;;;5.73;2.57;;;;;;;8.08;84.39;99211.50;4994846;28;20228;-51
2022/05/07 02:09:12;;;;;;;5.20;2.40;;;;;;;8.09;85.49;99214.91;4994816;28;20241;-53
2022/05/07 02:11:40;;;;;;;5.43;2.40;;;;;;;8.07;84.69;99220.25;4994888;28;20194;-53
2022/05/07 02:14:08;;;;;;;4.10;2.47;;;;;;;8.05;84.22;99218.69;4994384;28;20224;-54
2022/05/07 02:16:36;;;;;;;4.77;2.50;;;;;;;8.02;85.21;99221.53;5012636;28;20188;-52
2022/05/07 02:19:03;;;;;;;4.53;2.50;;;;;;;7.97;84.50;99214.91;5012647;28;20271;-53
2022/05/07 02:21:30;;;;;;;6.77;2.80;;;;;;;7.94;85.35;99215.19;4994702;28;20220;-55
2022/05/07 02:23:58;;;;;;;6.50;2.40;;;;;;;7.93;85.63;99208.31;5012072;28;20275;-55
2022/05/07 02:26:26;;;;;;;4.10;2.40;;;;;;;7.94;85.87;99214.34;4994728;28;20252;-53
2022/05/07 02:28:53;;;;;;;2.93;2.17;;;;;;;7.86;85.79;99206.31;5012251;28;20191;-54
2022/05/07 02:31:21;;;;;;;5.27;2.67;;;;;;;7.88;84.61;99210.47;4994397;28;20692;-53
2022/05/07 02:33:51;;;;;;;8.80;3.10;;;;;;;7.92;86.10;99211.03;4994340;28;20248;-52
2022/05/07 02:36:19;;;;;;;4.43;2.43;;;;;;;7.92;85.09;99211.03;5012194;28;20658;-53
2022/05/07 02:38:46;;;;;;;4.57;2.43;;;;;;;7.95;85.00;99210.78;4994959;28;20198;-53
2022/05/07 02:44:02;;;;;;;5.37;2.70;;;;;;;7.85;85.27;99209.84;4993842;28;20214;-54
2022/05/07 02:46:29;;;;;;;2.83;2.30;;;;;;;7.77;85.22;99210.47;4994022;28;20291;-54
2022/05/07 02:48:57;;;;;;;4.67;2.97;;;;;;;7.77;85.46;99203.47;5011846;28;20189;-54
2022/05/07 02:51:24;;;;;;;5.77;2.57;;;;;;;7.76;86.62;99206.19;4994144;28;20221;-52
2022/05/07 02:53:53;;;;;;;2.90;2.53;;;;;;;7.77;86.36;99202.66;4995850;28;20708;-54
2022/05/07 02:56:20;;;;;;;4.77;2.10;;;;;;;7.72;86.09;99207.38;4997760;28;20201;-52
2022/05/07 02:58:49;;;;;;;7.47;2.87;;;;;;;7.75;85.88;99205.38;4997378;28;20700;-54
2022/05/07 03:01:17;;;;;;;4.57;2.30;;;;;;;7.77;85.26;99206.06;4997721;28;20198;-55
2022/05/07 03:03:44;;;;;;;4.20;2.83;;;;;;;7.82;87.38;99203.94;4997218;28;20203;-54
2022/05/07 03:06:12;;;;;;;5.27;2.60;;;;;;;7.68;87.13;99199.81;4997607;28;20215;-53
2022/05/07 03:08:39;;;;;;;5.30;2.97;;;;;;;7.71;85.42;99203.13;4997371;28;20193;-54
2022/05/07 03:11:06;;;;;;;4.13;3.07;;;;;;;7.65;85.06;99199.22;4997275;28;20199;-54
2022/05/07 03:13:34;;;;;;;4.53;2.70;;;;;;;7.62;85.76;99199.44;4997465;28;20204;-53
2022/05/07 03:16:04;;;;;;;4.23;2.87;;;;;;;7.69;87.25;99195.44;5014991;28;20271;-54
2022/05/07 03:18:36;;;;;;;4.57;3.43;;;;;;;7.72;87.56;99200.41;4997496;28;20252;-54
2022/05/07 03:21:03;;;;;;;4.07;3.40;;;;;;;7.78;87.74;99199.94;4997410;28;20186;-54
2022/05/07 03:23:31;;;;;;;6.27;3.20;;;;;;;7.89;87.66;99208.66;4997510;28;20720;-54
2022/05/07 03:26:08;;;;;;;6.93;3.07;;;;;;;7.95;88.91;99206.41;4995099;28;20213;-54
2022/05/07 03:28:53;;;;;;;5.50;3.50;;;;;;;7.86;89.03;99212.34;5015105;28;20207;-53
2022/05/07 03:31:21;;;;;;;7.70;3.20;;;;;;;7.83;89.18;99216.00;4997179;28;20246;-53
2022/05/07 03:33:50;;;;;;;8.90;3.40;;;;;;;7.72;89.28;99218.59;4997129;28;20197;-55
2022/05/07 03:36:23;;;;;;;6.23;3.50;;;;;;;7.67;90.27;99210.31;4997295;28;20205;-55
2022/05/07 03:38:53;;;;;;;7.73;3.97;;;;;;;7.59;89.97;99204.88;4997124;28;20244;-54
2022/05/07 03:41:26;;;;;;;5.67;3.40;;;;;;;7.48;90.73;99206.53;4996977;28;20202;-52
2022/05/07 03:43:54;;;;;;;6.10;3.60;;;;;;;7.44;92.02;99207.69;4996488;28;20657;-52
2022/05/07 03:46:24;;;;;;;3.60;2.97;;;;;;;7.35;92.75;99209.22;5014478;28;20764;-54
2022/05/07 03:48:59;;;;;;;7.53;3.53;;;;;;;7.26;93.02;99203.91;5014539;28;20536;-52
2022/05/07 03:51:26;;;;;;;6.53;3.70;;;;;;;7.28;93.35;99207.22;4996505;28;20205;-53
2022/05/07 03:54:02;;;;;;;5.93;3.40;;;;;;;7.27;93.23;99205.56;4996289;28;20670;-54
2022/05/07 03:56:30;;;;;;;4.77;3.57;;;;;;;7.16;93.44;99212.41;4996629;28;20190;-54
2022/05/07 03:58:59;;;;;;;5.13;3.60;;;;;;;7.11;94.62;99203.28;4996769;28;20219;-53
2022/05/07 04:01:39;;;;;;;4.50;3.50;;;;;;;7.21;95.81;99206.84;4996525;28;20186;-54
2022/05/07 04:04:08;;;;;;;4.77;3.23;;;;;;;7.19;95.55;99206.13;4995214;28;20632;-52
2022/05/07 04:06:37;;;;;;;4.00;3.53;;;;;;;7.18;94.25;99207.06;4996142;28;20206;-53
2022/05/07 04:09:04;;;;;;;4.70;3.53;;;;;;;7.15;94.13;99202.94;5013998;28;20222;-54
2022/05/07 04:11:33;;;;;;;6.77;3.60;;;;;;;7.18;93.99;99212.25;4996392;28;20192;-54
2022/05/07 04:14:02;;;;;;;6.57;4.00;;;;;;;7.36;93.87;99218.69;4995779;28;20218;-53
2022/05/07 04:16:29;;;;;;;3.53;3.17;;;;;;;7.39;92.39;99220.25;4996353;28;20537;-54
2022/05/07 04:19:12;;;;;;;7.33;3.70;;;;;;;7.38;93.35;99224.59;4996018;28;20291;-54
2022/05/07 04:21:41;;;;;;;7.40;3.60;;;;;;;7.43;93.74;99220.81;4996058;28;20382;-53
2022/05/07 04:24:22;;;;;;;5.47;3.40;;;;;;;7.42;93.77;99217.38;4995622;28;20217;-53
2022/05/07 04:26:52;;;;;;;8.10;3.47;;;;;;;7.47;93.73;99219.66;4995983;28;20237;-53
2022/05/07 04:29:19;;;;;;;10.00;3.80;;;;;;;7.45;93.68;99224.94;4995786;28;20201;-53
2022/05/07 04:31:58;;;;;;;5.17;3.23;;;;;;;7.52;93.91;99225.31;4996026;28;20227;-52
2022/05/07 04:34:28;;;;;;;6.97;3.33;;;;;;;7.52;94.12;99218.34;4995512;28;20247;-52
2022/05/07 04:36:56;;;;;;;8.60;3.73;;;;;;;7.58;93.77;99218.81;4996076;28;20524;-52
2022/05/07 04:39:24;;;;;;;5.87;3.67;;;;;;;7.61;93.49;99226.38;5003719;28;20189;-52
2022/05/07 04:42:07;;;;;;;9.20;4.10;;;;;;;7.74;92.47;99219.31;5005886;28;20649;-55
2022/05/07 04:44:57;;;;;;;5.77;3.47;;;;;;;7.75;92.26;99226.16;5020701;28;20224;-55
2022/05/07 04:47:38;;;;;;;5.13;3.40;;;;;;;7.75;92.04;99226.16;5001842;28;20305;-52
2022/05/07 04:50:13;;;;;;;5.87;3.50;;;;;;;7.78;91.75;99225.09;5016095;28;20554;-54
2022/05/07 04:52:46;;;;;;;7.13;3.67;;;;;;;7.85;92.63;99228.03;5003390;28;20246;-52
2022/05/07 04:55:14;;;;;;;6.60;3.50;;;;;;;7.91;92.23;99224.97;4998330;28;20211;-54
2022/05/07 04:57:41;;;;;;;9.60;3.70;;;;;;;7.93;94.81;99223.94;4999689;28;20669;-54
2022/05/07 05:00:10;;;;;;;4.85;3.72;;;;;;;7.97;94.54;99222.72;5003710;28;20458;-53
2022/05/07 05:02:57;;;;;;;7.23;3.70;;;;;;;7.94;94.57;99222.13;5001784;28;20197;-52
2022/05/07 05:05:29;;;;;;;6.57;3.70;;;;;;;7.93;93.35;99223.94;5018655;28;20255;-52
2022/05/07 05:08:05;;;;;;;10.67;3.77;;;;;;;8.00;93.30;99221.66;5001630;28;20300;-52
2022/05/07 05:10:33;;;;;;;3.80;3.40;;;;;;;8.01;93.92;99220.72;5001757;28;20578;-54
2022/05/07 05:13:01;;;;;;;4.67;3.30;;;;;;;8.05;94.04;99219.53;5002129;28;20200;-53
2022/05/07 05:15:28;;;;;;;5.43;3.20;;;;;;;8.10;92.90;99225.19;5000741;28;20222;-54
2022/05/07 05:18:00;;;;;;;5.27;3.70;;;;;;;8.27;92.00;99225.66;4995447;28;20205;-54
2022/05/07 05:20:31;;;;;;;8.57;3.50;;;;;;;8.26;92.22;99230.00;4995357;28;20194;-54
2022/05/07 05:23:06;;;;;;;5.67;3.10;;;;;;;8.36;91.38;99224.94;4995570;28;20541;-52
2022/05/07 05:25:43;;;;;;;6.93;3.70;;;;;;;8.40;92.88;99221.13;4995186;28;20708;-53
2022/05/07 05:28:12;;;;;;;5.47;2.77;;;;;;;8.56;92.93;99227.72;4989500;28;20220;-54
2022/05/07 05:30:42;;;;;;;4.77;3.33;;;;;;;8.56;92.99;99233.75;4995125;28;20194;-52
2022/05/07 05:33:12;;;;;;;6.03;3.80;;;;;;;8.65;92.75;99231.38;4994929;28;20666;-55
2022/05/07 05:35:47;;;;;;;6.33;3.27;;;;;;;8.76;92.80;99230.50;4994853;28;20212;-54
2022/05/07 05:38:15;;;;;;;4.47;2.87;;;;;;;8.80;92.30;99234.50;4995081;28;20279;-54
2022/05/07 05:40:45;;;;;;;3.43;2.70;;;;;;;8.86;91.91;99237.44;4995242;28;20670;-52
2022/05/07 05:43:13;;;;;;;5.50;2.93;;;;;;;8.93;93.50;99242.97;4995075;28;20191;-53
2022/05/07 05:45:41;;;;;;;4.17;2.97;;;;;;;9.01;93.49;99237.13;4994610;28;20741;-52
2022/05/07 05:48:10;;;;;;;3.10;2.53;;;;;;;9.08;92.89;99240.06;4995140;28;20226;-53
2022/05/07 05:50:40;;;;;;;4.10;2.83;;;;;;;9.13;91.88;99240.53;5012725;28;20593;-52
2022/05/07 05:53:09;;;;;;;5.97;2.90;;;;;;;9.22;91.29;99247.59;4995029;28;20249;-53
2022/05/07 05:55:37;;;;;;;4.70;2.50;;;;;;;9.26;89.86;99248.97;4995104;28;20571;-54
2022/05/07 05:58:22;;;;;;;6.13;3.30;;;;;;;9.38;89.62;99254.94;5012763;28;20283;-53
2022/05/07 06:00:52;;;;;;;7.80;3.70;;;;;;;9.48;89.09;99251.56;4994979;28;20198;-52
2022/05/07 06:03:20;;;;;;;6.87;3.70;;;;;;;9.57;89.21;99246.41;5012572;28;20245;-54
2022/05/07 06:05:47;;;;;;;6.17;4.43;;;;;;;9.72;88.87;99251.28;5012563;28;20285;-54
2022/05/07 06:08:16;;;;;;;6.93;4.60;;;;;;;9.78;88.57;99253.38;4994693;28;20260;-53
2022/05/07 06:10:45;;;;;;;8.17;4.70;;;;;;;9.88;88.35;99249.03;4994742;28;20202;-54
2022/05/07 06:13:13;;;;;;;9.73;4.97;;;;;;;9.93;87.78;99245.19;4994174;28;20195;-54
2022/05/07 06:15:51;;;;;;;5.57;4.43;;;;;;;10.02;87.92;99247.84;4988426;28;20218;-54
2022/05/07 06:18:20;;;;;;;7.37;4.80;;;;;;;10.06;88.40;99239.78;4994468;28;20216;-53
2022/05/07 06:20:50;;;;;;;6.57;4.70;;;;;;;10.17;88.11;99248.31;4994631;28;20212;-52
2022/05/07 06:23:19;;;;;;;7.33;3.60;;;;;;;10.31;87.26;99247.09;4994532;28;20195;-53
2022/05/07 06:28:33;;;;;;;6.23;3.50;;;;;;;10.81;86.22;99255.03;4996001;28;20216;-52
2022/05/07 06:31:00;;;;;;;6.13;3.70;;;;;;;11.09;83.40;99253.41;4998331;28;20218;-54
2022/05/07 06:33:29;;;;;;;6.40;3.90;;;;;;;11.29;82.53;99251.56;4998222;28;20275;-55
2022/05/07 06:35:59;;;;;;;13.73;5.27;;;;;;;11.51;79.50;99260.88;4998046;28;20308;-54
2022/05/07 06:38:33;;;;;;;7.27;5.47;;;;;;;11.71;78.69;99255.59;4998014;28;20669;-52
2022/05/07 06:41:03;;;;;;;6.60;4.40;;;;;;;11.81;78.31;99256.41;4998086;28;20243;-54
2022/05/07 06:43:31;;;;;;;9.90;3.90;;;;;;;11.94;80.99;99263.91;4997890;28;20216;-53
2022/05/07 06:46:15;;;;;;;9.00;4.50;;;;;;;12.10;80.08;99262.50;4997824;28;20199;-54
2022/05/07 06:48:51;;;;;;;7.03;4.90;;;;;;;12.27;78.21;99267.94;4997885;28;20217;-54
2022/05/07 06:51:26;;;;;;;7.53;4.87;;;;;;;12.33;77.41;99267.34;4997738;28;20195;-53
2022/05/07 06:53:55;;;;;;;10.27;5.70;;;;;;;12.36;75.86;99269.69;5015105;28;20204;-53
2022/05/07 06:56:25;;;;;;;10.47;5.63;;;;;;;12.38;77.25;99265.13;5015383;28;20213;-52
2022/05/07 06:58:51;;;;;;;6.40;5.23;;;;;;;12.60;76.29;99268.31;5015391;28;20193;-52
2022/05/07 07:01:20;;;;;;;45.73;12.13;;;;;;;12.67;77.22;99275.41;5015245;28;20245;-53
2022/05/07 07:03:47;;;;;;;8.20;5.23;;;;;;;12.73;76.15;99268.72;5014873;28;20197;-54
2022/05/07 07:06:14;;;;;;;8.43;5.90;;;;;;;12.79;74.50;99272.56;5015243;28;20195;-53
2022/05/07 07:09:00;;;;;;;9.37;5.80;;;;;;;12.84;74.25;99273.75;5015144;28;20216;-52
2022/05/07 07:11:28;;;;;;;9.13;5.50;;;;;;;12.88;75.83;99271.69;5015145;28;20197;-53
2022/05/07 07:13:55;;;;;;;8.27;5.33;;;;;;;13.05;74.57;99275.25;4997000;28;20229;-53
2022/05/07 07:16:23;;;;;;;10.73;6.10;;;;;;;13.10;73.54;99274.81;5014983;28;20852;-53
2022/05/07 07:18:51;;;;;;;11.00;6.20;;;;;;;13.13;73.37;99275.31;5014993;28;20569;-55
2022/05/07 07:21:18;;;;;;;13.67;7.33;;;;;;;13.14;73.74;99278.78;5014784;28;20204;-53
2022/05/07 07:23:46;;;;;;;10.20;5.97;;;;;;;13.17;72.92;99269.78;5014515;28;20662;-53
2022/05/07 07:26:15;;;;;;;9.20;6.37;;;;;;;13.23;73.00;99274.41;5012429;28;20216;-53
2022/05/07 07:28:42;;;;;;;9.57;6.17;;;;;;;13.14;73.87;99265.69;5012689;28;20222;-53
2022/05/07 07:31:10;;;;;;;9.53;5.67;;;;;;;13.34;74.61;99273.34;5014599;28;20281;-53
2022/05/07 07:33:38;;;;;;;12.43;5.93;;;;;;;13.42;73.89;99266.41;5014803;28;20650;-54
2022/05/07 07:36:06;;;;;;;8.77;5.97;;;;;;;13.42;71.36;99274.28;5014337;28;20194;-54
2022/05/07 07:38:34;;;;;;;9.03;5.70;;;;;;;13.57;73.09;99274.53;4988573;28;20196;-53
2022/05/07 07:41:02;;;;;;;9.50;6.90;;;;;;;13.70;70.36;99274.13;5014799;28;20247;-53
2022/05/07 07:43:31;;;;;;;12.93;7.20;;;;;;;13.66;71.01;99278.03;5014622;28;20188;-55
2022/05/07 07:48:46;;;;;;;10.47;7.20;;;;;;;13.64;71.65;99272.13;4996412;28;20232;-54
2022/05/07 07:51:13;;;;;;;15.53;7.67;;;;;;;13.77;72.23;99269.06;4996915;28;20603;-53
2022/05/07 07:53:42;;;;;;;10.53;6.93;;;;;;;13.88;71.38;99266.19;5014386;28;20198;-55
2022/05/07 07:56:09;;;;;;;13.77;7.10;;;;;;;13.97;71.77;99271.47;4996403;28;20212;-55
2022/05/07 07:58:38;;;;;;;8.10;6.80;;;;;;;14.14;72.02;99267.09;4996733;28;20192;-52
2022/05/07 08:01:06;;;;;;;13.40;7.55;;;;;;;14.25;71.19;99264.19;4996788;28;20434;-52
2022/05/07 08:03:33;;;;;;;10.00;7.40;;;;;;;14.22;71.92;99263.69;5015514;28;20218;-52
2022/05/07 08:06:01;;;;;;;12.13;7.00;;;;;;;14.38;73.65;99266.34;5015322;28;20206;-51
2022/05/07 08:11:46;;;;;;;9.30;6.60;;;;;;;14.57;71.76;99264.44;5015459;28;20213;-51
2022/05/07 08:14:15;;;;;;;7.57;6.07;;;;;;;14.78;71.45;99263.19;5014816;28;20210;-53
2022/05/07 08:16:44;;;;;;;12.43;7.20;;;;;;;14.91;70.49;99266.16;5015541;28;20197;-51
2022/05/07 08:19:12;;;;;;;8.73;6.53;;;;;;;14.87;69.74;99267.47;5015212;28;20198;-54
2022/05/07 08:21:40;;;;;;;9.07;6.73;;;;;;;14.85;70.65;99267.63;4997031;28;20541;-52
2022/05/07 08:24:07;;;;;;;10.63;6.23;;;;;;;14.94;69.99;99260.59;4996628;28;20219;-51
2022/05/07 08:26:35;;;;;;;9.97;6.33;;;;;;;14.95;68.85;99264.84;5014428;28;20197;-53
2022/05/07 08:29:02;;;;;;;10.13;6.60;;;;;;;15.06;70.88;99266.31;4996700;28;20221;-55
2022/05/07 08:31:31;;;;;;;8.87;6.13;;;;;;;15.20;69.69;99270.13;5014601;28;20186;-53
2022/05/07 08:33:59;;;;;;;9.60;6.33;;;;;;;15.33;70.15;99261.72;5014320;28;20202;-52
2022/05/07 08:36:26;;;;;;;8.67;6.60;;;;;;;15.37;71.11;99268.28;4997179;28;20626;-52
2022/05/07 08:38:53;;;;;;;11.40;6.60;;;;;;;15.53;70.59;99269.25;5014753;28;20274;-51
2022/05/07 08:41:21;;;;;;;8.33;6.60;;;;;;;15.63;69.68;99262.00;4997201;28;20213;-53
2022/05/07 08:43:50;;;;;;;8.77;5.83;;;;;;;15.82;70.27;99255.53;5014364;28;20246;-54
2022/05/07 08:46:18;;;;;;;10.67;7.00;;;;;;;15.95;70.00;99255.03;4996864;28;20206;-54
2022/05/07 08:48:50;;;;;;;12.27;6.10;;;;;;;16.14;69.10;99258.25;4996751;28;20220;-54
2022/05/07 08:51:20;;;;;;;7.30;4.67;;;;;;;16.13;66.55;99256.59;5013644;28;20186;-51
2022/05/07 08:54:06;;;;;;;8.33;4.97;;;;;;;16.27;66.87;99255.88;5014509;28;20333;-51
2022/05/07 08:56:34;;;;;;;6.13;4.13;;;;;;;16.45;66.42;99255.59;5014525;28;20184;-51
2022/05/07 08:59:02;;;;;;;9.13;4.78;;;;;;;16.67;64.14;99248.75;5014367;28;20431;-51
2022/05/07 09:01:29;;;;;;;5.37;4.30;;;;;;;16.87;63.78;99250.06;4996263;28;20558;-52
2022/05/07 09:04:09;;;;;;;5.93;4.20;;;;;;;17.30;62.75;99249.59;5013051;28;20216;-52
2022/05/07 09:06:37;;;;;;;4.57;3.63;;;;;;;17.77;61.65;99248.44;5013839;28;20188;-53
2022/05/07 09:09:06;;;;;;;7.37;3.73;;;;;;;18.18;56.66;99249.81;5013418;28;20692;-53
2022/05/07 09:11:42;;;;;;;5.97;3.20;;;;;;;18.38;53.54;99242.09;5013513;28;20726;-54
2022/05/07 09:14:09;;;;;;;8.03;3.40;;;;;;;18.67;54.60;99242.19;5013036;28;20249;-52
2022/05/07 09:16:41;;;;;;;5.67;3.57;;;;;;;18.91;54.49;99248.94;5013102;28;20179;-52
2022/05/07 09:19:25;;;;;;;8.80;3.80;;;;;;;18.84;52.08;99248.84;5013267;28;20280;-54
2022/05/07 09:21:54;;;;;;;5.77;3.47;;;;;;;18.77;51.74;99245.34;5013330;28;20189;-54
2022/05/07 09:24:22;;;;;;;7.20;2.97;;;;;;;18.71;50.21;99248.72;5013035;28;20209;-54
2022/05/07 09:26:49;;;;;;;6.00;3.77;;;;;;;18.77;53.41;99241.88;5012083;28;20200;-54
2022/05/07 09:29:18;;;;;;;6.50;4.27;;;;;;;18.91;53.00;99238.34;5010584;28;20230;-52
2022/05/07 09:31:46;;;;;;;6.03;3.27;;;;;;;19.13;51.78;99238.34;5012868;28;20186;-52
2022/05/07 09:37:00;;;;;;;4.53;2.70;;;;;;;19.05;44.24;99241.16;5013149;28;20198;-52
2022/05/07 09:39:34;;;;;;;3.87;2.23;;;;;;;19.43;44.09;99225.75;5013195;28;20187;-52
2022/05/07 09:42:02;;;;;;;4.87;2.20;;;;;;;19.32;42.65;99226.28;5013365;28;20191;-54
2022/05/07 09:44:30;;;;;;;4.57;2.97;;;;;;;19.30;47.10;99230.94;5012582;28;20569;-52
2022/05/07 09:46:58;;;;;;;5.20;2.50;;;;;;;19.12;44.24;99224.31;5012861;28;20295;-53
2022/05/07 09:49:27;;;;;;;7.80;2.60;;;;;;;19.24;45.58;99224.56;4995287;28;20213;-52
2022/05/07 09:51:55;;;;;;;7.27;2.70;;;;;;;19.26;46.58;99230.50;4995082;28;20654;-52
2022/05/07 09:59:56;;;;;;;4.10;2.30;;;;;;;18.82;46.19;99232.34;5022388;28;20184;-52
2022/05/07 10:02:36;;;;;;;4.43;2.60;;;;;;;19.07;45.63;99224.06;5024611;28;20184;-54
2022/05/07 10:05:37;;;;;;;4.90;2.63;;;;;;;19.30;43.19;99217.72;5021809;28;20201;-51
2022/05/07 10:08:27;;;;;;;4.23;2.40;;;;;;;19.06;43.69;99214.47;5007206;28;20193;-53
2022/05/07 10:10:57;;;;;;;2.53;2.30;;;;;;;19.08;44.13;99219.59;5023570;28;20686;-51
2022/05/07 10:13:26;;;;;;;5.90;2.40;;;;;;;19.10;43.67;99214.91;5024666;28;20183;-52
2022/05/07 10:16:00;;;;;;;5.00;2.40;;;;;;;19.23;43.57;99212.34;5026283;28;20220;-52
2022/05/07 10:18:35;;;;;;;3.37;2.17;;;;;;;19.45;43.99;99207.00;5021868;28;20822;-52
2022/05/07 10:21:12;;;;;;;4.60;2.00;;;;;;;19.19;41.19;99211.09;5027532;28;20657;-51
2022/05/07 10:23:49;;;;;;;2.73;2.20;;;;;;;19.31;42.35;99212.22;5027216;28;20747;-54
2022/05/07 10:26:18;;;;;;;4.73;2.70;;;;;;;19.43;42.01;99201.09;5027288;28;20201;-52
2022/05/07 10:28:46;;;;;;;4.00;2.50;;;;;;;19.27;41.92;99203.03;5027634;28;20208;-52
2022/05/07 10:31:18;;;;;;;4.93;2.80;;;;;;;19.32;42.02;99213.03;5008626;28;20197;-50
2022/05/07 10:33:45;;;;;;;4.00;2.30;;;;;;;19.50;42.69;99203.78;5024346;28;20184;-51
2022/05/07 10:36:14;;;;;;;2.30;2.07;;;;;;;19.52;42.84;99205.22;5025785;28;20203;-51
2022/05/07 10:38:42;;;;;;;2.33;1.90;;;;;;;19.42;42.33;99207.41;5024631;28;20220;-52
2022/05/07 10:41:23;;;;;;;4.00;2.40;;;;;;;19.37;42.69;99210.63;5008690;28;20538;-51
2022/05/07 10:44:04;;;;;;;3.03;2.30;;;;;;;19.27;42.44;99202.22;5024224;28;20190;-51
2022/05/07 10:46:43;;;;;;;2.83;2.27;;;;;;;19.23;42.02;99193.84;5024196;28;20195;-51
2022/05/07 10:49:11;;;;;;;3.47;2.20;;;;;;;19.51;41.60;99193.00;5006292;28;20566;-51
2022/05/07 10:51:39;;;;;;;2.43;2.23;;;;;;;19.57;40.04;99194.84;5025184;28;20184;-50
2022/05/07 10:54:19;;;;;;;4.63;1.80;;;;;;;19.51;41.28;99190.34;5022165;28;20209;-52
2022/05/07 10:56:49;;;;;;;3.27;1.97;;;;;;;19.37;40.57;99178.03;5022290;28;20190;-52
2022/05/07 10:59:16;;;;;;;2.27;1.80;;;;;;;19.68;41.71;99182.06;5016839;28;20182;-52
2022/05/07 11:01:44;;;;;;;5.17;1.80;;;;;;;19.71;39.22;99187.78;5015532;28;20237;-52
2022/05/07 11:04:13;;;;;;;2.23;1.83;;;;;;;19.76;39.92;99179.25;5015128;28;20211;-53
2022/05/07 11:06:48;;;;;;;3.03;1.73;;;;;;;20.10;40.37;99182.06;4998171;28;20538;-51
2022/05/07 11:09:17;;;;;;;2.07;1.70;;;;;;;20.41;38.98;99186.00;5015707;28;20290;-51
2022/05/07 11:11:46;;;;;;;3.70;1.90;;;;;;;20.23;38.95;99182.09;5015894;28;20180;-51
2022/05/07 11:14:23;;;;;;;3.37;1.73;;;;;;;20.03;37.26;99185.50;5014655;28;20209;-52
2022/05/07 11:16:51;;;;;;;3.63;2.10;;;;;;;20.08;37.33;99189.41;5015192;28;20182;-51
2022/05/07 11:19:25;;;;;;;3.00;1.77;;;;;;;20.01;37.07;99186.72;5015910;28;20187;-51
2022/05/07 11:21:53;;;;;;;4.27;1.97;;;;;;;20.00;36.79;99179.81;5015558;28;20197;-51
2022/05/07 11:24:21;;;;;;;4.50;1.80;;;;;;;20.00;36.72;99177.94;5015914;28;20737;-53
2022/05/07 11:26:53;;;;;;;3.83;2.07;;;;;;;19.76;36.70;99179.25;5012742;28;20535;-52
2022/05/07 11:29:21;;;;;;;4.63;1.60;;;;;;;19.76;35.86;99174.78;4997240;28;20626;-50
2022/05/07 11:31:57;;;;;;;3.97;2.27;;;;;;;20.02;35.58;99172.47;5015762;28;20186;-52
2022/05/07 11:34:32;;;;;;;4.03;1.90;;;;;;;20.00;37.14;99163.91;5010219;28;20209;-52
2022/05/07 11:37:14;;;;;;;4.50;2.00;;;;;;;20.25;37.72;99168.63;5015956;28;20198;-51
2022/05/07 11:39:48;;;;;;;2.03;1.80;;;;;;;20.29;36.69;99164.56;5013049;28;20191;-51
2022/05/07 11:42:39;;;;;;;6.00;1.97;;;;;;;20.30;35.20;99179.44;5008672;28;20202;-50
2022/05/07 11:45:26;;;;;;;3.43;1.70;;;;;;;20.25;36.74;99173.94;5009442;28;20226;-53
2022/05/07 11:47:59;;;;;;;4.50;1.70;;;;;;;20.44;36.48;99162.56;5015259;28;20196;-52
2022/05/07 11:50:28;;;;;;;3.23;1.53;;;;;;;20.23;35.73;99166.19;5013861;28;20218;-51
2022/05/07 11:52:55;;;;;;;8.53;2.27;;;;;;;20.35;34.40;99159.28;5010679;28;20200;-51
2022/05/07 11:55:27;;;;;;;3.17;1.80;;;;;;;20.58;36.17;99163.41;5014070;28;20305;-51
2022/05/07 11:57:55;;;;;;;3.67;1.83;;;;;;;20.57;34.89;99164.41;5014460;28;20207;-51
2022/05/07 12:00:25;;;;;;;4.83;1.97;;;;;;;20.47;34.72;99154.19;5014684;28;20194;-51
2022/05/07 12:02:56;;;;;;;3.67;2.00;;;;;;;20.82;34.30;99165.66;5014500;28;20205;-53
2022/05/07 12:05:25;;;;;;;3.10;1.60;;;;;;;21.28;36.18;99158.66;5013990;28;20220;-54
2022/05/07 12:07:53;;;;;;;3.40;1.87;;;;;;;21.44;33.09;99165.34;5014252;28;20196;-52
2022/05/07 12:10:21;;;;;;;3.43;1.53;;;;;;;21.49;31.54;99161.06;5014697;28;20235;-52
2022/05/07 12:12:50;;;;;;;6.70;1.80;;;;;;;21.70;32.02;99161.00;5014382;28;20221;-53
2022/05/07 12:17:51;;;;;;;4.83;1.83;;;;;;;21.21;33.03;99158.66;5014199;28;20224;-54
2022/05/07 12:18:07;;;;;;;2.33;1.57;;;;;;;21.92;33.05;99153.56;5014083;28;20233;-51
2022/05/07 12:20:34;;;;;;;3.23;1.90;;;;;;;22.30;32.45;99157.22;5013975;28;20561;-52